createdAt,value
2022-12-23T00:00:14.976Z,147.55
2022-12-23T00:01:14.957Z,147.16
2022-12-23T00:02:15.042Z,146.38
2022-12-23T00:03:15.061Z,147.55
2022-12-23T00:04:15.015Z,146.77
2022-12-23T00:05:14.920Z,147.29
2022-12-23T00:06:14.916Z,147.94
2022-12-23T00:07:14.891Z,147.42
2022-12-23T00:08:14.897Z,147.03
2022-12-23T00:09:14.875Z,147.68
2022-12-23T00:10:14.854Z,148.07
2022-12-23T00:11:14.848Z,148.20
2022-12-23T00:12:14.866Z,147.81
2022-12-23T00:13:14.826Z,147.94
2022-12-23T00:14:20.922Z,149.40
2022-12-23T00:15:15.811Z,148.99
2022-12-23T00:16:14.847Z,148.20
2022-12-23T00:17:22.514Z,148.20
2022-12-23T00:18:15.795Z,148.20
2022-12-23T00:19:14.785Z,147.68
2022-12-23T00:20:14.747Z,147.29
2022-12-23T00:21:14.736Z,146.38
2022-12-23T00:22:14.725Z,146.51
2022-12-23T00:23:14.719Z,144.60
2022-12-23T00:24:14.724Z,145.23
2022-12-23T00:25:14.698Z,144.48
2022-12-23T00:26:14.697Z,143.49
2022-12-23T00:27:14.686Z,143.61
2022-12-23T00:28:14.732Z,142.63
2022-12-23T00:29:14.668Z,142.75
2022-12-23T00:30:14.643Z,141.66
2022-12-23T00:31:14.683Z,140.94
2022-12-23T00:32:14.681Z,140.94
2022-12-23T00:33:14.629Z,139.64
2022-12-23T00:34:14.598Z,139.06
2022-12-23T00:35:14.590Z,139.18
2022-12-23T00:36:14.658Z,137.46
2022-12-23T00:37:14.623Z,136.56
2022-12-23T00:38:14.570Z,134.58
2022-12-23T00:39:14.562Z,134.04
2022-12-23T00:40:14.541Z,133.18
2022-12-23T00:41:14.538Z,133.61
2022-12-23T00:42:14.505Z,132.76
2022-12-23T00:43:14.512Z,132.34
2022-12-23T00:44:14.496Z,131.60
2022-12-23T00:45:14.520Z,131.71
2022-12-23T00:46:14.527Z,131.29
2022-12-23T00:47:14.466Z,130.88
2022-12-23T00:48:14.438Z,131.40
2022-12-23T00:49:14.467Z,131.19
2022-12-23T00:50:14.425Z,130.47
2022-12-23T00:51:14.421Z,131.71
2022-12-23T00:52:14.433Z,130.17
2022-12-23T00:53:14.391Z,129.96
2022-12-23T00:54:14.389Z,131.29
2022-12-23T00:55:14.365Z,130.88
2022-12-23T00:56:14.354Z,130.07
2022-12-23T00:57:14.340Z,130.47
2022-12-23T00:58:14.337Z,130.47
2022-12-23T00:59:14.339Z,130.47
2022-12-23T01:00:14.308Z,130.68
2022-12-23T01:01:14.394Z,130.17
2022-12-23T01:02:14.394Z,130.07
2022-12-23T01:03:14.394Z,129.96
2022-12-23T01:04:14.286Z,128.76
2022-12-23T01:05:14.268Z,128.37
2022-12-23T01:06:14.282Z,128.56
2022-12-23T01:07:14.240Z,127.00
2022-12-23T01:08:14.247Z,127.58
2022-12-23T01:09:14.229Z,127.87
2022-12-23T01:10:14.232Z,126.32
2022-12-23T01:11:14.215Z,126.23
2022-12-23T01:12:14.220Z,126.71
2022-12-23T01:13:14.200Z,126.13
2022-12-23T01:14:14.173Z,125.75
2022-12-23T01:15:14.160Z,125.66
2022-12-23T01:16:17.554Z,125.19
2022-12-23T01:17:14.254Z,125.66
2022-12-23T01:18:14.128Z,124.63
2022-12-23T01:19:14.126Z,124.35
2022-12-23T01:20:14.089Z,124.16
2022-12-23T01:21:14.089Z,123.89
2022-12-23T01:22:14.079Z,123.70
2022-12-23T01:23:14.054Z,123.15
2022-12-23T01:24:14.099Z,122.79
2022-12-23T01:25:14.058Z,122.61
2022-12-23T01:26:14.729Z,122.25
2022-12-23T01:27:14.018Z,122.25
2022-12-23T01:28:14.008Z,121.36
2022-12-23T01:29:14.008Z,121.10
2022-12-23T01:30:14.005Z,119.97
2022-12-23T01:31:14.018Z,119.71
2022-12-23T01:32:14.030Z,118.77
2022-12-23T01:33:13.967Z,118.77
2022-12-23T01:34:13.964Z,118.94
2022-12-23T01:35:13.928Z,118.18
2022-12-23T01:36:13.930Z,117.68
2022-12-23T01:37:13.916Z,116.61
2022-12-23T01:38:13.905Z,115.96
2022-12-23T01:39:13.903Z,116.13
2022-12-23T01:40:13.908Z,115.80
2022-12-23T01:41:13.859Z,114.45
2022-12-23T01:42:13.860Z,114.38
2022-12-23T01:43:13.850Z,114.14
2022-12-23T01:44:13.840Z,112.30
2022-12-23T01:45:13.859Z,112.22
2022-12-23T01:46:13.850Z,112.00
2022-12-23T01:47:13.803Z,111.10
2022-12-23T01:48:13.802Z,110.37
2022-12-23T01:49:13.779Z,110.51
2022-12-23T01:50:13.765Z,110.29
2022-12-23T01:51:13.772Z,109.64
2022-12-23T01:52:13.746Z,109.21
2022-12-23T01:53:13.729Z,108.50
2022-12-23T01:54:13.739Z,108.08
2022-12-23T01:55:13.733Z,107.80
2022-12-23T01:56:13.722Z,106.76
2022-12-23T01:57:13.683Z,106.49
2022-12-23T01:58:13.708Z,105.82
2022-12-23T01:59:13.670Z,105.48
2022-12-23T02:00:13.684Z,105.02
2022-12-23T02:01:13.665Z,104.62
2022-12-23T02:02:13.802Z,104.89
2022-12-23T02:03:13.628Z,104.43
2022-12-23T02:04:13.617Z,104.30
2022-12-23T02:05:13.607Z,103.58
2022-12-23T02:06:13.617Z,103.91
2022-12-23T02:07:13.578Z,103.26
2022-12-23T02:08:13.567Z,103.39
2022-12-23T02:09:13.552Z,103.26
2022-12-23T02:10:13.540Z,103.71
2022-12-23T02:11:13.555Z,103.20
2022-12-23T02:12:13.527Z,103.58
2022-12-23T02:13:13.515Z,102.69
2022-12-23T02:14:13.511Z,102.57
2022-12-23T02:15:13.503Z,103.01
2022-12-23T02:16:13.484Z,102.50
2022-12-23T02:17:13.517Z,102.57
2022-12-23T02:18:13.503Z,102.06
2022-12-23T02:19:13.449Z,101.82
2022-12-23T02:20:13.454Z,102.94
2022-12-23T02:21:13.455Z,102.38
2022-12-23T02:22:13.425Z,102.38
2022-12-23T02:23:13.455Z,102.82
2022-12-23T02:24:21.213Z,102.88
2022-12-23T02:25:13.618Z,103.46
2022-12-23T02:26:13.509Z,103.65
2022-12-23T02:27:13.413Z,102.38
2022-12-23T02:28:13.438Z,103.20
2022-12-23T02:29:13.429Z,103.20
2022-12-23T02:30:13.397Z,104.10
2022-12-23T02:31:13.503Z,103.58
2022-12-23T02:32:13.345Z,103.58
2022-12-23T02:33:13.361Z,103.91
2022-12-23T02:34:13.537Z,105.08
2022-12-23T02:35:13.343Z,104.49
2022-12-23T02:36:13.333Z,104.30
2022-12-23T02:37:13.409Z,105.15
2022-12-23T02:38:13.345Z,104.62
2022-12-23T02:39:13.370Z,104.75
2022-12-23T02:40:13.324Z,103.97
2022-12-23T02:41:13.429Z,104.49
2022-12-23T02:42:13.589Z,104.69
2022-12-23T02:43:13.221Z,105.02
2022-12-23T02:44:13.272Z,105.22
2022-12-23T02:45:13.204Z,105.15
2022-12-23T02:46:13.512Z,105.42
2022-12-23T02:47:13.249Z,104.82
2022-12-23T02:48:13.171Z,105.08
2022-12-23T02:49:13.189Z,104.95
2022-12-23T02:50:13.154Z,104.17
2022-12-23T02:51:13.132Z,104.36
2022-12-23T02:52:13.187Z,103.97
2022-12-23T02:53:13.155Z,104.23
2022-12-23T02:54:13.116Z,104.82
2022-12-23T02:55:13.137Z,104.89
2022-12-23T02:56:13.141Z,105.22
2022-12-23T02:57:13.154Z,105.15
2022-12-23T02:58:13.095Z,105.68
2022-12-23T02:59:13.117Z,105.62
2022-12-23T03:00:13.078Z,106.43
2022-12-23T03:01:13.130Z,105.95
2022-12-23T03:02:13.288Z,106.36
2022-12-23T03:03:13.147Z,105.95
2022-12-23T03:04:13.004Z,106.43
2022-12-23T03:05:13.016Z,106.15
2022-12-23T03:06:13.007Z,106.15
2022-12-23T03:07:18.329Z,106.36
2022-12-23T03:08:13.986Z,106.09
2022-12-23T03:09:12.950Z,105.95
2022-12-23T03:10:12.943Z,106.36
2022-12-23T03:11:12.900Z,105.89
2022-12-23T03:12:12.876Z,106.02
2022-12-23T03:13:12.877Z,106.09
2022-12-23T03:14:12.873Z,106.15
2022-12-23T03:15:12.868Z,106.36
2022-12-23T03:16:12.940Z,106.36
2022-12-23T03:17:12.830Z,106.90
2022-12-23T03:18:12.843Z,107.04
2022-12-23T03:19:12.810Z,107.25
2022-12-23T03:20:12.875Z,107.66
2022-12-23T03:21:12.818Z,107.73
2022-12-23T03:22:12.768Z,108.71
2022-12-23T03:23:12.779Z,108.36
2022-12-23T03:24:12.790Z,108.57
2022-12-23T03:25:12.763Z,109.21
2022-12-23T03:26:12.736Z,109.86
2022-12-23T03:27:12.776Z,109.64
2022-12-23T03:28:12.740Z,110.73
2022-12-23T03:29:12.691Z,110.37
2022-12-23T03:30:12.683Z,110.59
2022-12-23T03:31:12.755Z,111.18
2022-12-23T03:32:12.692Z,110.88
2022-12-23T03:33:12.647Z,111.32
2022-12-23T03:34:12.648Z,111.40
2022-12-23T03:35:12.699Z,112.68
2022-12-23T03:36:12.614Z,111.77
2022-12-23T03:37:12.631Z,112.60
2022-12-23T03:38:12.588Z,112.83
2022-12-23T03:39:12.589Z,113.44
2022-12-23T03:40:12.569Z,113.21
2022-12-23T03:41:12.596Z,113.52
2022-12-23T03:42:12.578Z,114.69
2022-12-23T03:43:12.559Z,113.83
2022-12-23T03:44:12.553Z,113.91
2022-12-23T03:45:37.674Z,114.22
2022-12-23T03:46:13.575Z,114.38
2022-12-23T03:47:12.526Z,114.69
2022-12-23T03:48:12.511Z,115.25
2022-12-23T03:49:12.537Z,115.48
2022-12-23T03:50:12.490Z,115.89
2022-12-23T03:51:12.505Z,116.69
2022-12-23T03:52:17.279Z,116.53
2022-12-23T03:53:13.488Z,117.11
2022-12-23T03:54:12.437Z,118.35
2022-12-23T03:55:12.422Z,117.93
2022-12-23T03:56:12.396Z,119.03
2022-12-23T03:57:12.422Z,119.88
2022-12-23T03:58:12.380Z,119.97
2022-12-23T03:59:12.393Z,121.19
2022-12-23T04:00:12.375Z,120.92
2022-12-23T04:01:12.402Z,121.10
2022-12-23T04:02:12.396Z,121.63
2022-12-23T04:03:12.379Z,122.52
2022-12-23T04:04:12.394Z,123.34
2022-12-23T04:05:12.304Z,124.35
2022-12-23T04:06:12.316Z,124.35
2022-12-23T04:07:12.299Z,123.25
2022-12-23T04:08:12.291Z,123.98
2022-12-23T04:09:16.651Z,124.35
2022-12-23T04:10:13.278Z,124.16
2022-12-23T04:11:12.255Z,123.43
2022-12-23T04:12:12.267Z,122.88
2022-12-23T04:13:12.340Z,123.89
2022-12-23T04:14:12.222Z,123.52
2022-12-23T04:15:13.235Z,122.70
2022-12-23T04:16:12.226Z,123.43
2022-12-23T04:17:12.185Z,122.88
2022-12-23T04:18:12.174Z,122.61
2022-12-23T04:19:12.166Z,122.88
2022-12-23T04:20:12.169Z,122.25
2022-12-23T04:21:12.130Z,122.07
2022-12-23T04:22:12.117Z,122.07
2022-12-23T04:23:12.127Z,122.52
2022-12-23T04:24:12.144Z,121.98
2022-12-23T04:25:12.126Z,121.72
2022-12-23T04:26:12.095Z,121.63
2022-12-23T04:27:12.057Z,121.28
2022-12-23T04:28:12.077Z,120.66
2022-12-23T04:29:12.095Z,120.92
2022-12-23T04:30:12.077Z,120.49
2022-12-23T04:31:12.117Z,119.97
2022-12-23T04:32:12.046Z,120.23
2022-12-23T04:33:12.013Z,120.40
2022-12-23T04:34:12.029Z,120.92
2022-12-23T04:35:12.010Z,120.14
2022-12-23T04:36:12.027Z,118.60
2022-12-23T04:37:11.977Z,118.52
2022-12-23T04:38:11.986Z,119.11
2022-12-23T04:39:12.030Z,118.27
2022-12-23T04:40:11.955Z,118.60
2022-12-23T04:41:11.946Z,118.27
2022-12-23T04:42:11.954Z,118.52
2022-12-23T04:43:11.919Z,117.02
2022-12-23T04:44:11.901Z,117.60
2022-12-23T04:45:11.968Z,117.60
2022-12-23T04:46:11.928Z,116.61
2022-12-23T04:47:11.885Z,116.94
2022-12-23T04:48:11.867Z,116.69
2022-12-23T04:49:11.880Z,117.27
2022-12-23T04:50:11.870Z,116.53
2022-12-23T04:51:11.839Z,115.80
2022-12-23T04:52:11.823Z,116.21
2022-12-23T04:53:11.822Z,115.56
2022-12-23T04:54:11.782Z,117.02
2022-12-23T04:55:11.785Z,116.37
2022-12-23T04:56:11.785Z,116.45
2022-12-23T04:57:11.772Z,116.61
2022-12-23T04:58:11.816Z,116.21
2022-12-23T04:59:11.771Z,115.25
2022-12-23T05:00:11.752Z,116.21
2022-12-23T05:01:11.806Z,116.45
2022-12-23T05:02:11.884Z,115.25
2022-12-23T05:03:11.872Z,115.32
2022-12-23T05:04:11.661Z,115.32
2022-12-23T05:05:11.658Z,115.64
2022-12-23T05:06:11.661Z,114.77
2022-12-23T05:07:11.633Z,114.85
2022-12-23T05:08:11.617Z,114.77
2022-12-23T05:09:11.615Z,114.53
2022-12-23T05:10:11.598Z,114.45
2022-12-23T05:11:11.592Z,114.14
2022-12-23T05:12:11.558Z,114.53
2022-12-23T05:13:11.544Z,114.61
2022-12-23T05:14:11.540Z,113.99
2022-12-23T05:15:11.530Z,114.14
2022-12-23T05:16:11.546Z,114.77
2022-12-23T05:17:11.529Z,114.77
2022-12-23T05:18:11.492Z,114.53
2022-12-23T05:19:11.541Z,114.85
2022-12-23T05:20:11.465Z,115.17
2022-12-23T05:21:11.456Z,115.01
2022-12-23T05:22:11.449Z,114.77
2022-12-23T05:23:11.448Z,115.09
2022-12-23T05:24:11.424Z,115.01
2022-12-23T05:25:11.439Z,115.56
2022-12-23T05:26:11.432Z,115.25
2022-12-23T05:27:11.406Z,116.37
2022-12-23T05:28:11.403Z,115.56
2022-12-23T05:29:11.362Z,116.21
2022-12-23T05:30:11.362Z,115.96
2022-12-23T05:31:11.446Z,116.21
2022-12-23T05:32:11.497Z,116.53
2022-12-23T05:33:11.351Z,117.85
2022-12-23T05:34:11.367Z,117.19
2022-12-23T05:35:11.309Z,117.43
2022-12-23T05:36:11.299Z,117.27
2022-12-23T05:37:11.295Z,117.68
2022-12-23T05:38:11.285Z,118.10
2022-12-23T05:39:11.267Z,119.11
2022-12-23T05:40:11.266Z,118.52
2022-12-23T05:41:11.297Z,119.20
2022-12-23T05:42:11.242Z,119.20
2022-12-23T05:43:11.220Z,118.94
2022-12-23T05:44:11.216Z,120.23
2022-12-23T05:45:11.216Z,120.84
2022-12-23T05:46:11.247Z,120.57
2022-12-23T05:47:11.196Z,120.84
2022-12-23T05:48:11.166Z,120.40
2022-12-23T05:49:11.171Z,121.01
2022-12-23T05:50:11.163Z,121.36
2022-12-23T05:51:11.135Z,122.07
2022-12-23T05:52:11.124Z,121.89
2022-12-23T05:53:11.135Z,121.89
2022-12-23T05:54:11.094Z,122.25
2022-12-23T05:55:11.122Z,122.97
2022-12-23T05:56:11.094Z,123.15
2022-12-23T05:57:11.060Z,122.88
2022-12-23T05:58:11.048Z,122.97
2022-12-23T05:59:11.085Z,123.25
2022-12-23T06:00:11.058Z,123.34
2022-12-23T06:01:11.036Z,123.98
2022-12-23T06:02:11.209Z,124.07
2022-12-23T06:03:11.221Z,124.16
2022-12-23T06:04:11.132Z,123.89
2022-12-23T06:05:10.990Z,124.16
2022-12-23T06:06:10.969Z,124.53
2022-12-23T06:07:10.977Z,125.00
2022-12-23T06:08:10.960Z,126.13
2022-12-23T06:09:10.946Z,125.75
2022-12-23T06:10:10.915Z,125.19
2022-12-23T06:11:10.919Z,125.56
2022-12-23T06:12:10.919Z,125.47
2022-12-23T06:13:10.896Z,125.85
2022-12-23T06:14:10.878Z,125.38
2022-12-23T06:15:10.858Z,125.38
2022-12-23T06:16:10.926Z,125.75
2022-12-23T06:17:10.883Z,125.19
2022-12-23T06:18:10.830Z,125.09
2022-12-23T06:19:10.827Z,124.44
2022-12-23T06:20:17.941Z,124.81
2022-12-23T06:21:11.850Z,124.44
2022-12-23T06:22:10.806Z,124.81
2022-12-23T06:23:10.796Z,125.09
2022-12-23T06:24:10.769Z,123.98
2022-12-23T06:25:10.772Z,125.19
2022-12-23T06:26:10.744Z,124.81
2022-12-23T06:27:10.754Z,124.25
2022-12-23T06:28:10.828Z,123.89
2022-12-23T06:29:10.718Z,123.25
2022-12-23T06:30:10.696Z,123.25
2022-12-23T06:31:10.720Z,123.98
2022-12-23T06:32:10.733Z,123.43
2022-12-23T06:33:10.679Z,123.06
2022-12-23T06:34:10.678Z,123.34
2022-12-23T06:35:10.653Z,123.15
2022-12-23T06:36:10.635Z,123.70
2022-12-23T06:37:10.628Z,123.25
2022-12-23T06:38:12.446Z,123.70
2022-12-23T06:39:10.636Z,123.25
2022-12-23T06:40:10.610Z,123.52
2022-12-23T06:41:10.583Z,124.63
2022-12-23T06:42:10.572Z,124.44
2022-12-23T06:43:10.560Z,124.72
2022-12-23T06:44:10.579Z,124.81
2022-12-23T06:45:10.549Z,125.00
2022-12-23T06:46:10.588Z,124.63
2022-12-23T06:47:10.560Z,124.53
2022-12-23T06:48:10.512Z,123.70
2022-12-23T06:49:13.369Z,123.43
2022-12-23T06:50:10.481Z,122.88
2022-12-23T06:51:10.471Z,123.34
2022-12-23T06:52:10.467Z,123.70
2022-12-23T06:53:10.487Z,123.34
2022-12-23T06:54:10.462Z,123.43
2022-12-23T06:55:10.437Z,123.06
2022-12-23T06:56:10.425Z,122.61
2022-12-23T06:57:10.400Z,122.79
2022-12-23T06:58:10.406Z,122.34
2022-12-23T06:59:10.395Z,122.97
2022-12-23T07:00:10.393Z,122.97
2022-12-23T07:01:10.580Z,122.25
2022-12-23T07:02:10.508Z,122.34
2022-12-23T07:03:10.443Z,123.15
2022-12-23T07:04:10.429Z,122.43
2022-12-23T07:05:10.335Z,121.54
2022-12-23T07:06:10.310Z,121.28
2022-12-23T07:07:10.291Z,120.40
2022-12-23T07:08:10.290Z,120.40
2022-12-23T07:09:10.274Z,119.37
2022-12-23T07:10:10.311Z,119.11
2022-12-23T07:11:10.278Z,119.62
2022-12-23T07:12:10.263Z,120.14
2022-12-23T07:13:10.257Z,120.14
2022-12-23T07:14:10.228Z,119.54
2022-12-23T07:15:10.257Z,119.79
2022-12-23T07:16:10.247Z,119.11
2022-12-23T07:17:10.258Z,119.37
2022-12-23T07:18:10.176Z,118.52
2022-12-23T07:19:10.174Z,118.77
2022-12-23T07:20:10.170Z,118.77
2022-12-23T07:21:19.761Z,118.27
2022-12-23T07:22:11.141Z,118.18
2022-12-23T07:23:17.946Z,118.02
2022-12-23T07:24:10.113Z,118.52
2022-12-23T07:25:10.121Z,118.52
2022-12-23T07:26:10.087Z,118.43
2022-12-23T07:27:10.072Z,118.60
2022-12-23T07:28:10.083Z,118.69
2022-12-23T07:29:10.079Z,117.93
2022-12-23T07:30:10.111Z,118.18
2022-12-23T07:31:10.092Z,119.03
2022-12-23T07:32:10.095Z,118.18
2022-12-23T07:33:10.032Z,119.28
2022-12-23T07:34:10.030Z,118.69
2022-12-23T07:35:09.991Z,119.28
2022-12-23T07:36:10.043Z,119.45
2022-12-23T07:37:09.980Z,118.69
2022-12-23T07:38:09.977Z,119.71
2022-12-23T07:39:09.972Z,119.11
2022-12-23T07:40:09.939Z,117.85
2022-12-23T07:41:09.934Z,118.77
2022-12-23T07:42:42.804Z,118.52
2022-12-23T07:43:10.945Z,118.94
2022-12-23T07:44:09.896Z,119.11
2022-12-23T07:45:09.964Z,118.77
2022-12-23T07:46:09.975Z,119.45
2022-12-23T07:47:09.946Z,118.69
2022-12-23T07:48:09.866Z,118.27
2022-12-23T07:49:09.843Z,117.85
2022-12-23T07:50:09.881Z,118.52
2022-12-23T07:51:09.850Z,118.94
2022-12-23T07:52:09.811Z,118.94
2022-12-23T07:53:09.805Z,118.69
2022-12-23T07:54:09.839Z,118.77
2022-12-23T07:55:09.833Z,119.28
2022-12-23T07:56:09.828Z,118.60
2022-12-23T07:57:09.791Z,119.28
2022-12-23T07:58:09.743Z,119.62
2022-12-23T07:59:09.738Z,119.37
2022-12-23T08:00:09.742Z,119.54
2022-12-23T08:01:09.798Z,119.45
2022-12-23T08:02:09.907Z,120.05
2022-12-23T08:03:09.759Z,119.97
2022-12-23T08:04:09.706Z,120.57
2022-12-23T08:05:09.731Z,119.79
2022-12-23T08:06:09.648Z,120.05
2022-12-23T08:07:09.640Z,120.31
2022-12-23T08:08:09.628Z,120.84
2022-12-23T08:09:09.647Z,120.66
2022-12-23T08:10:09.620Z,120.66
2022-12-23T08:11:09.602Z,120.92
2022-12-23T08:12:09.608Z,121.01
2022-12-23T08:13:09.600Z,120.66
2022-12-23T08:14:09.571Z,121.01
2022-12-23T08:15:09.592Z,120.66
2022-12-23T08:16:09.594Z,121.19
2022-12-23T08:17:09.572Z,121.19
2022-12-23T08:18:09.525Z,122.34
2022-12-23T08:19:09.536Z,121.98
2022-12-23T08:20:09.529Z,122.97
2022-12-23T08:21:09.495Z,122.79
2022-12-23T08:22:09.503Z,123.70
2022-12-23T08:23:09.466Z,124.72
2022-12-23T08:24:09.461Z,124.53
2022-12-23T08:25:09.478Z,125.38
2022-12-23T08:26:09.464Z,125.38
2022-12-23T08:27:09.427Z,125.28
2022-12-23T08:28:09.411Z,125.85
2022-12-23T08:29:09.440Z,125.56
2022-12-23T08:30:09.413Z,126.32
2022-12-23T08:31:09.475Z,126.90
2022-12-23T08:32:09.377Z,128.66
2022-12-23T08:33:09.360Z,128.27
2022-12-23T08:34:09.363Z,129.46
2022-12-23T08:35:09.383Z,129.66
2022-12-23T08:36:09.354Z,130.37
2022-12-23T08:37:09.351Z,130.99
2022-12-23T08:38:09.314Z,131.60
2022-12-23T08:39:09.359Z,131.92
2022-12-23T08:40:09.286Z,131.92
2022-12-23T08:41:09.294Z,132.65
2022-12-23T08:42:09.266Z,132.12
2022-12-23T08:43:09.263Z,133.71
2022-12-23T08:44:09.310Z,134.58
2022-12-23T08:45:09.238Z,135.45
2022-12-23T08:46:09.324Z,136.22
2022-12-23T08:47:09.330Z,135.78
2022-12-23T08:48:09.463Z,136.90
2022-12-23T08:49:09.207Z,136.45
2022-12-23T08:50:09.209Z,136.11
2022-12-23T08:51:09.180Z,136.22
2022-12-23T08:52:09.184Z,136.78
2022-12-23T08:53:09.146Z,136.90
2022-12-23T08:54:09.138Z,136.90
2022-12-23T08:55:09.141Z,138.03
2022-12-23T08:56:09.124Z,138.03
2022-12-23T08:57:09.099Z,138.14
2022-12-23T08:58:09.096Z,137.35
2022-12-23T08:59:13.354Z,139.06
2022-12-23T09:00:10.087Z,138.83
2022-12-23T09:01:09.115Z,138.14
2022-12-23T09:02:09.272Z,138.49
2022-12-23T09:03:09.184Z,138.83
2022-12-23T09:04:09.023Z,137.68
2022-12-23T09:05:09.230Z,132.97
2022-12-23T09:06:09.036Z,128.56
2022-12-23T09:07:08.994Z,123.34
2022-12-23T09:08:08.989Z,118.60
2022-12-23T09:09:08.979Z,115.72
2022-12-23T09:10:08.955Z,113.60
2022-12-23T09:11:09.156Z,111.03
2022-12-23T09:12:08.936Z,110.37
2022-12-23T09:13:08.928Z,109.43
2022-12-23T09:14:08.946Z,110.88
2022-12-23T09:15:08.895Z,111.25
2022-12-23T09:16:08.994Z,111.85
2022-12-23T09:17:08.877Z,113.52
2022-12-23T09:18:08.864Z,115.56
2022-12-23T09:19:08.889Z,118.10
2022-12-23T09:20:08.859Z,119.97
2022-12-23T09:21:08.843Z,122.61
2022-12-23T09:22:08.845Z,123.79
2022-12-23T09:23:08.864Z,125.94
2022-12-23T09:24:08.812Z,127.78
2022-12-23T09:25:08.786Z,128.86
2022-12-23T09:26:08.787Z,129.96
2022-12-23T09:27:08.797Z,132.12
2022-12-23T09:28:08.760Z,132.34
2022-12-23T09:29:08.767Z,133.39
2022-12-23T09:30:08.762Z,135.12
2022-12-23T09:31:09.481Z,135.45
2022-12-23T09:32:08.754Z,137.46
2022-12-23T09:33:08.722Z,138.26
2022-12-23T09:34:08.687Z,138.60
2022-12-23T09:35:08.721Z,139.64
2022-12-23T09:36:08.683Z,140.35
2022-12-23T09:37:08.707Z,140.70
2022-12-23T09:38:08.650Z,141.42
2022-12-23T09:39:08.666Z,142.38
2022-12-23T09:40:08.625Z,142.99
2022-12-23T09:41:08.628Z,143.12
2022-12-23T09:42:08.644Z,143.98
2022-12-23T09:43:08.613Z,144.23
2022-12-23T09:44:08.592Z,143.49
2022-12-23T09:45:08.615Z,144.23
2022-12-23T09:46:08.614Z,144.23
2022-12-23T09:47:08.555Z,144.73
2022-12-23T09:48:08.626Z,145.36
2022-12-23T09:49:08.539Z,146.38
2022-12-23T09:50:08.531Z,147.03
2022-12-23T09:51:08.505Z,146.77
2022-12-23T09:52:08.508Z,147.03
2022-12-23T09:53:08.496Z,148.46
2022-12-23T09:54:13.405Z,147.29
2022-12-23T09:55:09.469Z,146.77
2022-12-23T09:56:08.478Z,145.62
2022-12-23T09:57:08.455Z,144.60
2022-12-23T09:58:08.483Z,144.11
2022-12-23T09:59:08.421Z,144.48
2022-12-23T10:00:08.411Z,143.61
2022-12-23T10:01:08.418Z,143.98
2022-12-23T10:02:08.612Z,143.49
2022-12-23T10:03:08.664Z,144.23
2022-12-23T10:04:08.412Z,146.00
2022-12-23T10:05:08.366Z,145.11
2022-12-23T10:06:08.341Z,146.64
2022-12-23T10:07:08.347Z,146.77
2022-12-23T10:08:08.356Z,147.42
2022-12-23T10:09:08.364Z,147.55
2022-12-23T10:10:08.296Z,148.99
2022-12-23T10:11:08.301Z,148.60
2022-12-23T10:12:08.281Z,148.73
2022-12-23T10:13:08.281Z,148.86
2022-12-23T10:14:08.269Z,149.66
2022-12-23T10:15:08.242Z,150.07
2022-12-23T10:16:08.278Z,151.15
2022-12-23T10:17:08.221Z,151.02
2022-12-23T10:18:08.235Z,150.20
2022-12-23T10:19:08.235Z,151.29
2022-12-23T10:20:08.183Z,151.02
2022-12-23T10:21:08.185Z,152.12
2022-12-23T10:22:08.162Z,151.29
2022-12-23T10:23:08.163Z,151.02
2022-12-23T10:24:08.191Z,150.47
2022-12-23T10:25:08.138Z,150.07
2022-12-23T10:26:08.142Z,151.29
2022-12-23T10:27:08.228Z,150.47
2022-12-23T10:28:08.117Z,150.47
2022-12-23T10:29:08.198Z,151.57
2022-12-23T10:30:33.752Z,152.26
2022-12-23T10:31:39.724Z,153.24
2022-12-23T10:32:09.149Z,152.40
2022-12-23T10:33:08.041Z,153.80
2022-12-23T10:34:08.071Z,153.80
2022-12-23T10:35:08.077Z,154.09
2022-12-23T10:36:08.078Z,155.23
2022-12-23T10:37:08.045Z,155.38
2022-12-23T10:38:08.937Z,156.98
2022-12-23T10:39:08.028Z,157.73
2022-12-23T10:40:07.999Z,157.43
2022-12-23T10:41:09.524Z,157.13
2022-12-23T10:42:07.956Z,160.30
2022-12-23T10:43:07.956Z,159.99
2022-12-23T10:44:07.949Z,161.54
2022-12-23T10:45:07.929Z,161.08
2022-12-23T10:46:07.924Z,163.76
2022-12-23T10:47:08.058Z,164.41
2022-12-23T10:48:13.656Z,165.39
2022-12-23T10:49:08.895Z,166.21
2022-12-23T10:50:07.885Z,165.55
2022-12-23T10:51:07.915Z,167.71
2022-12-23T10:52:07.834Z,169.07
2022-12-23T10:53:07.830Z,169.42
2022-12-23T10:54:07.855Z,170.80
2022-12-23T10:55:07.817Z,170.98
2022-12-23T10:56:07.904Z,170.63
2022-12-23T10:57:07.791Z,170.11
2022-12-23T10:58:07.837Z,171.33
2022-12-23T10:59:07.757Z,169.93
2022-12-23T11:00:07.755Z,170.11
2022-12-23T11:01:15.002Z,170.80
2022-12-23T11:02:08.901Z,169.76
2022-12-23T11:03:07.838Z,170.63
2022-12-23T11:04:07.710Z,171.15
2022-12-23T11:05:07.694Z,173.47
2022-12-23T11:06:07.690Z,172.93
2022-12-23T11:07:42.074Z,175.47
2022-12-23T11:08:08.672Z,174.74
2022-12-23T11:09:07.659Z,172.93
2022-12-23T11:10:07.718Z,174.55
2022-12-23T11:11:07.687Z,174.01
2022-12-23T11:12:07.629Z,172.21
2022-12-23T11:13:07.659Z,174.55
2022-12-23T11:14:07.600Z,173.11
2022-12-23T11:15:07.592Z,173.29
2022-12-23T11:16:07.664Z,173.83
2022-12-23T11:17:07.599Z,172.21
2022-12-23T11:18:07.567Z,172.21
2022-12-23T11:19:07.553Z,172.04
2022-12-23T11:20:07.532Z,172.04
2022-12-23T11:21:07.535Z,173.29
2022-12-23T11:22:07.549Z,171.33
2022-12-23T11:23:07.525Z,170.98
2022-12-23T11:24:07.505Z,170.11
2022-12-23T11:25:07.478Z,170.80
2022-12-23T11:26:07.522Z,170.98
2022-12-23T11:27:07.478Z,168.90
2022-12-23T11:28:07.474Z,169.76
2022-12-23T11:29:07.455Z,167.21
2022-12-23T11:30:07.428Z,166.54
2022-12-23T11:31:07.442Z,165.55
2022-12-23T11:32:07.527Z,166.88
2022-12-23T11:33:07.580Z,164.90
2022-12-23T11:34:07.381Z,164.57
2022-12-23T11:35:07.471Z,165.71
2022-12-23T11:36:07.369Z,165.55
2022-12-23T11:37:07.920Z,165.71
2022-12-23T11:38:07.356Z,164.41
2022-12-23T11:39:07.368Z,165.71
2022-12-23T11:40:07.329Z,163.92
2022-12-23T11:41:07.322Z,165.06
2022-12-23T11:42:07.338Z,165.55
2022-12-23T11:43:07.310Z,165.71
2022-12-23T11:44:07.299Z,166.54
2022-12-23T11:45:07.261Z,167.54
2022-12-23T11:46:07.323Z,170.28
2022-12-23T11:47:07.284Z,169.07
2022-12-23T11:48:07.237Z,170.80
2022-12-23T11:49:07.242Z,172.39
2022-12-23T11:50:07.296Z,171.15
2022-12-23T11:51:07.308Z,171.68
2022-12-23T11:52:07.237Z,170.80
2022-12-23T11:53:07.230Z,170.98
2022-12-23T11:54:07.169Z,171.68
2022-12-23T11:55:07.155Z,172.04
2022-12-23T11:56:07.172Z,172.21
2022-12-23T11:57:07.215Z,171.86
2022-12-23T11:58:07.145Z,171.86
2022-12-23T11:59:07.257Z,172.93
2022-12-23T12:00:07.121Z,173.29
2022-12-23T12:01:07.095Z,173.65
2022-12-23T12:02:07.116Z,174.74
2022-12-23T12:03:07.219Z,174.55
2022-12-23T12:04:07.077Z,175.10
2022-12-23T12:05:07.057Z,176.77
2022-12-23T12:06:07.145Z,176.77
2022-12-23T12:07:07.024Z,178.48
2022-12-23T12:08:07.198Z,178.67
2022-12-23T12:09:07.013Z,179.24
2022-12-23T12:10:07.075Z,178.09
2022-12-23T12:11:07.017Z,177.53
2022-12-23T12:12:07.028Z,178.09
2022-12-23T12:13:07.035Z,178.29
2022-12-23T12:14:06.945Z,178.09
2022-12-23T12:15:06.939Z,178.86
2022-12-23T12:16:06.934Z,180.02
2022-12-23T12:17:06.976Z,179.24
2022-12-23T12:18:06.907Z,181.19
2022-12-23T12:19:06.956Z,179.43
2022-12-23T12:20:06.934Z,179.05
2022-12-23T12:21:06.894Z,179.63
2022-12-23T12:22:06.874Z,177.53
2022-12-23T12:23:06.868Z,177.71
2022-12-23T12:24:20.531Z,178.48
2022-12-23T12:25:07.866Z,178.86
2022-12-23T12:26:07.083Z,180.21
2022-12-23T12:27:06.824Z,180.99
2022-12-23T12:28:06.803Z,181.58